Buffalo, Illinois
Current Conditions -  °F | °C
As of 9:52 PM on Thursday 18 Dec 2014 (Local Time) from KSPI Reporting Station
Overcast Overcast  
Wind Chill: -2°   Ceiling: 4000
Heat Index: -2°   Visibility: 10mi
Dew Point: -6°   Wind: 3mph
Humidity: 75%   Direction: 350°N
Pressure: 30.29"   Gusts: NA
Location:  39.85°N, 89.41°W
Report Text: KSPI 190352Z 35003KT 10SM OVC040 M02/M06 A3029 RMK AO2 SLP265 T10171056
Loading
Personal Weather Stations






























Interactive Weather Map New forecast layout! Learn more

10-Day Weather Forecast

Advertisements
Track Severe Weather on mobile